Time;durP1;ratioP1;P1;durP2;ratioP2;P2;SDS_P1;SDS_P2;PMS_P1;PMS_P2;Temp;Humidity;BMP_temperature;BMP_pressure;BME280_temperature;BME280_humidity;BME280_pressure;Samples;Min_cycle;Max_cycle;Signal;HPM_P1;HPM_P2
2023/01/21 00:01:43;;;;;;;75.63;39.40;;;-2.80;99.90;;;;;;5034953;28;20242;-66
2023/01/21 00:04:10;;;;;;;75.13;39.37;;;-2.70;99.90;;;;;;5061287;28;20219;-68
2023/01/21 00:06:37;;;;;;;79.33;39.30;;;-2.60;99.90;;;;;;5043486;28;20192;-69
2023/01/21 00:09:04;;;;;;;68.80;35.70;;;-2.60;99.90;;;;;;5061667;28;20767;-67
2023/01/21 00:11:31;;;;;;;65.73;33.30;;;-2.70;99.90;;;;;;5060899;28;20733;-65
2023/01/21 00:13:58;;;;;;;73.53;36.80;;;-2.70;99.90;;;;;;5043166;28;20203;-64
2023/01/21 00:16:25;;;;;;;63.83;34.70;;;-2.70;99.90;;;;;;5058350;28;20281;-66
2023/01/21 00:18:52;;;;;;;70.83;37.63;;;-2.60;1.00;;;;;;5056241;28;20278;-67
2023/01/21 00:21:19;;;;;;;66.83;36.17;;;-2.60;1.00;;;;;;5042495;28;20211;-65
2023/01/21 00:23:46;;;;;;;94.53;46.07;;;-2.70;99.90;;;;;;5040903;28;20257;-68
2023/01/21 00:26:13;;;;;;;80.67;40.10;;;-2.70;99.90;;;;;;5041339;28;20604;-67
2023/01/21 00:28:43;;;;;;;87.17;40.30;;;-2.70;1.00;;;;;;5058539;28;20246;-66
2023/01/21 00:31:11;;;;;;;89.60;39.60;;;-2.60;1.00;;;;;;5059669;28;20590;-67
2023/01/21 00:33:38;;;;;;;78.63;34.80;;;-2.60;1.00;;;;;;5058368;28;20196;-68
2023/01/21 00:36:10;;;;;;;81.30;38.47;;;-2.60;99.90;;;;;;5024175;28;20602;-67
2023/01/21 00:38:38;;;;;;;119.80;49.23;;;-2.60;99.90;;;;;;5025380;28;20203;-67
2023/01/21 00:41:10;;;;;;;97.60;42.83;;;-2.60;99.90;;;;;;5025101;28;20250;-67
2023/01/21 00:43:38;;;;;;;73.60;35.90;;;-2.70;99.90;;;;;;5043507;28;20219;-67
2023/01/21 00:46:06;;;;;;;73.43;36.07;;;-2.70;99.90;;;;;;5026124;28;20235;-68
2023/01/21 00:48:33;;;;;;;77.93;35.10;;;-2.80;10.20;;;;;;5042660;28;20597;-68
2023/01/21 00:51:00;;;;;;;81.93;41.57;;;-2.90;1.00;;;;;;5026129;28;20299;-65
2023/01/21 00:53:29;;;;;;;73.03;40.00;;;-2.90;1.00;;;;;;5041831;28;20222;-74
2023/01/21 00:56:05;;;;;;;63.97;34.97;;;-3.00;1.00;;;;;;5041350;28;20899;-68
2023/01/21 00:58:33;;;;;;;60.53;31.73;;;-2.90;24.60;;;;;;5043495;28;20303;-66
2023/01/21 01:01:09;;;;;;;73.97;36.00;;;-2.90;93.30;;;;;;5025116;28;20502;-66
2023/01/21 01:03:37;;;;;;;69.83;33.33;;;-3.00;99.90;;;;;;5057039;28;23377;-66
2023/01/21 01:06:07;;;;;;;75.43;34.70;;;-3.00;73.10;;;;;;5041491;28;20199;-65
2023/01/21 01:08:34;;;;;;;66.70;33.07;;;-3.00;99.90;;;;;;5025218;28;20196;-67
2023/01/21 01:11:02;;;;;;;64.73;31.57;;;-3.00;99.90;;;;;;5039205;28;20272;-67
2023/01/21 01:13:29;;;;;;;66.17;33.33;;;-3.10;99.90;;;;;;5060862;28;20233;-69
2023/01/21 01:15:57;;;;;;;62.80;34.57;;;-3.00;99.90;;;;;;5059807;28;20266;-69
2023/01/21 01:18:25;;;;;;;58.87;31.20;;;-3.00;99.90;;;;;;5041812;28;20256;-69
2023/01/21 01:20:53;;;;;;;60.23;32.73;;;-3.00;99.90;;;;;;5059674;28;20299;-69
2023/01/21 01:23:20;;;;;;;59.37;31.67;;;-3.10;99.90;;;;;;5059788;28;20196;-69
2023/01/21 01:26:14;;;;;;;67.00;34.27;;;-3.10;99.90;;;;;;5060869;28;20735;-69
2023/01/21 01:28:42;;;;;;;61.77;31.67;;;-3.10;99.90;;;;;;5057731;28;20290;-69
2023/01/21 01:31:12;;;;;;;61.53;32.53;;;-3.20;99.90;;;;;;5057754;28;20714;-68
2023/01/21 01:33:39;;;;;;;65.37;33.23;;;-3.10;99.90;;;;;;5025949;28;20197;-69
2023/01/21 01:36:10;;;;;;;53.67;30.17;;;-3.20;99.90;;;;;;5061648;28;20732;-68
2023/01/21 01:38:37;;;;;;;53.33;30.63;;;-3.30;99.90;;;;;;5026409;28;20207;-69
2023/01/21 01:41:05;;;;;;;54.10;31.50;;;-3.20;99.90;;;;;;5061230;28;20253;-69
2023/01/21 01:43:50;;;;;;;58.97;30.10;;;-3.20;99.90;;;;;;5058572;28;20184;-69
2023/01/21 01:46:18;;;;;;;51.57;29.37;;;-3.30;99.90;;;;;;5058728;28;20191;-69
2023/01/21 01:48:51;;;;;;;55.63;30.60;;;-3.30;99.90;;;;;;5056019;28;20205;-69
2023/01/21 01:51:25;;;;;;;56.43;31.20;;;-3.30;1.00;;;;;;5042381;28;20722;-69
2023/01/21 01:53:52;;;;;;;53.20;30.50;;;-3.30;1.00;;;;;;5023602;28;20215;-69
2023/01/21 01:56:20;;;;;;;51.53;29.30;;;-3.30;1.00;;;;;;5043278;28;20704;-69
2023/01/21 01:58:48;;;;;;;54.27;30.10;;;-3.30;1.00;;;;;;5061308;28;20610;-70
2023/01/21 02:01:15;;;;;;;55.07;31.30;;;-3.20;1.00;;;;;;5058479;28;20261;-69
2023/01/21 02:03:49;;;;;;;53.93;30.50;;;-3.20;1.00;;;;;;5057660;28;20315;-75
2023/01/21 02:06:18;;;;;;;53.97;31.37;;;-3.20;1.00;;;;;;5060160;28;20730;-69
2023/01/21 02:08:46;;;;;;;57.33;30.00;;;-3.40;1.00;;;;;;5041368;28;20192;-72
2023/01/21 02:11:18;;;;;;;57.53;31.07;;;-3.40;1.00;;;;;;5042653;28;20261;-68
2023/01/21 02:13:57;;;;;;;55.47;32.33;;;-3.50;1.00;;;;;;5058288;28;20188;-67
2023/01/21 02:16:52;;;;;;;55.93;32.20;;;-3.60;1.00;;;;;;5057558;28;20194;-68
2023/01/21 02:20:10;;;;;;;60.20;31.00;;;-3.70;1.00;;;;;;5042559;28;20211;-68
2023/01/21 02:22:52;;;;;;;52.03;28.60;;;-3.60;1.00;;;;;;5035025;28;20295;-69
2023/01/21 02:25:41;;;;;;;52.47;29.93;;;-3.60;1.00;;;;;;5061218;28;20536;-69
2023/01/21 02:28:36;;;;;;;54.53;29.43;;;-3.60;1.00;;;;;;5018787;28;20199;-68
2023/01/21 02:31:37;;;;;;;52.43;30.30;;;-3.50;1.00;;;;;;5060489;28;20227;-69
2023/01/21 02:34:12;;;;;;;56.43;29.33;;;-3.50;28.80;;;;;;5024616;28;20204;-70
2023/01/21 02:37:04;;;;;;;58.27;31.23;;;-3.40;99.90;;;;;;5057491;28;20202;-69
2023/01/21 02:39:56;;;;;;;58.93;30.83;;;-3.60;99.10;;;;;;5023604;28;20685;-71
2023/01/21 02:42:45;;;;;;;58.63;30.27;;;-3.60;99.90;;;;;;5027610;28;20265;-71
2023/01/21 02:45:50;;;;;;;57.40;29.87;;;-3.70;99.90;;;;;;5057912;28;20188;-69
2023/01/21 02:48:47;;;;;;;54.00;29.57;;;-3.60;99.90;;;;;;5026299;28;20191;-70
2023/01/21 02:51:16;;;;;;;59.37;29.90;;;-3.70;99.90;;;;;;5037340;28;20562;-69
2023/01/21 02:53:43;;;;;;;60.47;31.43;;;-3.60;99.90;;;;;;5056193;28;20199;-69
2023/01/21 02:56:14;;;;;;;60.13;30.83;;;-3.60;99.90;;;;;;5048498;28;20212;-69
2023/01/21 02:59:00;;;;;;;57.17;31.13;;;-3.60;1.00;;;;;;5056502;28;20256;-69
2023/01/21 03:01:33;;;;;;;56.83;30.97;;;-3.60;1.00;;;;;;5041111;28;20257;-69
2023/01/21 03:04:18;;;;;;;59.00;31.23;;;-3.60;1.00;;;;;;5057836;28;20813;-72
2023/01/21 03:07:08;;;;;;;60.57;32.07;;;-3.70;1.00;;;;;;5057667;28;20195;-69
2023/01/21 03:09:36;;;;;;;61.47;30.10;;;-3.80;1.00;;;;;;5023553;28;20226;-70
2023/01/21 03:12:28;;;;;;;56.63;30.37;;;-3.90;99.90;;;;;;5058061;28;20191;-72
2023/01/21 03:18:35;;;;;;;55.67;29.13;;;-4.20;99.90;;;;;;5060505;28;20273;-68
2023/01/21 03:21:15;;;;;;;54.67;29.63;;;-4.30;99.90;;;;;;5044262;28;20223;-69
2023/01/21 03:23:46;;;;;;;60.03;27.87;;;-4.30;99.90;;;;;;5037758;28;20245;-68
2023/01/21 03:26:17;;;;;;;48.33;28.07;;;-4.30;99.90;;;;;;5023694;28;20737;-68
2023/01/21 03:28:49;;;;;;;56.93;29.80;;;-4.40;99.90;;;;;;5056527;28;20320;-70
2023/01/21 03:31:37;;;;;;;58.37;30.40;;;-4.40;99.90;;;;;;5052449;28;20311;-70
2023/01/21 03:34:08;;;;;;;53.23;28.17;;;-4.40;99.90;;;;;;5057026;28;20213;-67
2023/01/21 03:36:50;;;;;;;53.50;29.00;;;-4.20;99.90;;;;;;5058648;28;20214;-69
2023/01/21 03:39:27;;;;;;;49.97;28.90;;;-4.00;1.00;;;;;;5058489;28;20711;-70
2023/01/21 03:41:54;;;;;;;52.43;29.30;;;-4.10;1.00;;;;;;5024425;28;20218;-70
2023/01/21 03:44:21;;;;;;;48.67;28.27;;;-4.20;99.90;;;;;;5038035;28;20350;-68
2023/01/21 03:47:01;;;;;;;50.77;28.80;;;-4.30;99.90;;;;;;5041612;28;20191;-67
2023/01/21 03:49:40;;;;;;;56.90;30.57;;;-4.30;99.90;;;;;;5038526;28;20609;-67
2023/01/21 03:52:09;;;;;;;52.50;28.67;;;-4.20;1.00;;;;;;5056442;28;21014;-68
2023/01/21 03:54:36;;;;;;;54.83;30.30;;;-4.20;99.90;;;;;;5041478;28;20290;-68
2023/01/21 03:57:03;;;;;;;53.20;29.27;;;-4.30;99.90;;;;;;5039831;28;20750;-68
2023/01/21 03:59:30;;;;;;;50.23;28.17;;;-4.40;99.90;;;;;;5056988;28;20711;-69
2023/01/21 04:01:57;;;;;;;53.97;28.40;;;-4.40;99.90;;;;;;5038458;28;20219;-69
2023/01/21 04:04:24;;;;;;;50.73;28.23;;;-4.50;99.90;;;;;;5021940;28;20223;-68
2023/01/21 04:06:51;;;;;;;54.20;26.93;;;-4.60;99.90;;;;;;5048009;28;20198;-70
2023/01/21 04:09:18;;;;;;;52.23;28.77;;;-4.60;99.90;;;;;;5031535;28;20210;-70
2023/01/21 04:11:45;;;;;;;52.37;27.93;;;-4.60;99.90;;;;;;5052462;28;20234;-69
2023/01/21 04:14:12;;;;;;;52.90;27.13;;;-4.60;99.90;;;;;;5039628;28;20208;-69
2023/01/21 04:16:39;;;;;;;57.53;29.80;;;-4.50;99.90;;;;;;5057731;28;20205;-69
2023/01/21 04:19:06;;;;;;;49.30;27.13;;;-4.50;99.90;;;;;;5056307;28;20294;-69
2023/01/21 04:21:33;;;;;;;50.43;27.60;;;-4.60;99.90;;;;;;5055910;28;20297;-69
2023/01/21 04:24:00;;;;;;;49.60;26.10;;;-4.60;99.90;;;;;;5057154;28;20191;-70
2023/01/21 04:26:27;;;;;;;50.00;27.43;;;-4.70;99.90;;;;;;5051093;28;20204;-68
2023/01/21 04:28:54;;;;;;;47.70;25.70;;;-4.70;78.70;;;;;;5023463;28;20257;-68
2023/01/21 04:31:21;;;;;;;48.70;26.57;;;-4.70;99.90;;;;;;5045829;28;20807;-68
2023/01/21 04:33:48;;;;;;;49.60;28.37;;;-4.70;99.90;;;;;;5035876;28;20323;-68
2023/01/21 04:36:15;;;;;;;46.33;26.03;;;-4.70;99.90;;;;;;5034951;28;20196;-69
2023/01/21 04:38:42;;;;;;;46.17;26.00;;;-4.50;99.90;;;;;;5058598;28;20576;-69
2023/01/21 04:41:09;;;;;;;47.43;27.07;;;-4.40;1.00;;;;;;5045284;28;20212;-68
2023/01/21 04:43:36;;;;;;;47.50;26.77;;;-4.40;99.90;;;;;;5057660;28;20233;-68
2023/01/21 04:46:04;;;;;;;55.70;29.97;;;-4.50;99.90;;;;;;5039179;28;20291;-70
2023/01/21 04:48:32;;;;;;;52.57;28.63;;;-4.50;99.90;;;;;;5055875;28;20223;-69
2023/01/21 04:50:59;;;;;;;47.67;26.20;;;-4.60;99.90;;;;;;5055989;28;20695;-69
2023/01/21 04:53:26;;;;;;;54.47;28.37;;;-4.60;99.90;;;;;;5026441;28;20218;-68
2023/01/21 04:55:53;;;;;;;46.57;26.47;;;-4.70;99.90;;;;;;5041471;28;20195;-70
2023/01/21 04:58:20;;;;;;;47.20;27.27;;;-4.70;91.00;;;;;;5024573;28;20231;-66
2023/01/21 05:00:47;;;;;;;51.47;28.50;;;-4.80;69.60;;;;;;5039235;28;20910;-66
2023/01/21 05:03:14;;;;;;;47.60;28.40;;;-4.70;69.50;;;;;;5025908;28;20244;-66
2023/01/21 05:05:41;;;;;;;48.97;27.17;;;-4.60;99.90;;;;;;5059356;28;20191;-67
2023/01/21 05:08:08;;;;;;;52.37;28.67;;;-4.50;99.90;;;;;;5044068;28;20285;-67
2023/01/21 05:10:35;;;;;;;49.33;27.67;;;-4.60;99.90;;;;;;5059255;28;20221;-67
2023/01/21 05:13:02;;;;;;;51.87;29.57;;;-4.60;18.10;;;;;;5061403;28;20701;-68
2023/01/21 05:15:31;;;;;;;56.27;29.53;;;-4.60;83.90;;;;;;5059346;28;20195;-68
2023/01/21 05:17:59;;;;;;;48.97;27.50;;;-4.70;1.00;;;;;;5041346;28;20297;-69
2023/01/21 05:20:26;;;;;;;54.73;27.87;;;-4.80;1.00;;;;;;5060253;28;20195;-65
2023/01/21 05:22:53;;;;;;;50.57;28.23;;;-4.80;1.00;;;;;;5058364;28;20261;-66
2023/01/21 05:25:20;;;;;;;49.00;26.37;;;-4.70;87.20;;;;;;5038738;28;20195;-68
2023/01/21 05:27:51;;;;;;;55.53;28.87;;;-4.70;40.60;;;;;;5057766;28;20204;-68
2023/01/21 05:30:19;;;;;;;47.40;28.23;;;-4.80;1.00;;;;;;5038517;28;20280;-68
2023/01/21 05:32:51;;;;;;;54.60;28.53;;;-4.80;1.00;;;;;;5014991;28;20210;-67
2023/01/21 05:35:19;;;;;;;50.27;27.53;;;-4.90;1.00;;;;;;5058630;28;20281;-67
2023/01/21 05:37:47;;;;;;;53.43;27.53;;;-4.80;1.00;;;;;;5040598;28;20690;-69
2023/01/21 05:40:15;;;;;;;56.77;30.87;;;-4.50;99.90;;;;;;5058123;28;20230;-69
2023/01/21 05:42:43;;;;;;;56.60;31.87;;;-4.30;99.90;;;;;;5039278;28;20211;-69
2023/01/21 05:45:10;;;;;;;58.07;32.97;;;-4.10;99.90;;;;;;5056983;28;20211;-68
2023/01/21 05:47:37;;;;;;;65.30;35.30;;;-3.80;1.00;;;;;;5024062;28;20190;-68
2023/01/21 05:50:05;;;;;;;60.00;34.17;;;-3.70;1.00;;;;;;5056576;28;20188;-68
2023/01/21 05:52:32;;;;;;;64.93;35.03;;;-3.60;1.00;;;;;;5040637;28;20695;-68
2023/01/21 05:54:59;;;;;;;63.47;34.70;;;-3.50;99.90;;;;;;5040222;28;20413;-68
2023/01/21 05:57:29;;;;;;;63.67;35.10;;;-3.40;99.90;;;;;;5042073;28;20293;-68
2023/01/21 05:59:57;;;;;;;67.63;35.23;;;-3.30;99.90;;;;;;5047238;28;20264;-68
2023/01/21 06:02:24;;;;;;;59.87;33.10;;;-3.20;25.30;;;;;;5038658;28;20215;-68
2023/01/21 06:04:51;;;;;;;65.60;36.63;;;-3.20;1.00;;;;;;5060899;28;20674;-69
2023/01/21 06:07:19;;;;;;;65.97;34.60;;;-3.10;1.00;;;;;;5060958;28;20221;-68
2023/01/21 06:09:46;;;;;;;60.63;32.77;;;-3.10;99.90;;;;;;5056858;28;20214;-69
2023/01/21 06:12:13;;;;;;;62.27;33.37;;;-3.00;99.90;;;;;;5041240;28;20221;-68
2023/01/21 06:14:40;;;;;;;68.00;34.33;;;-2.90;1.00;;;;;;5041179;28;20235;-69
2023/01/21 06:17:07;;;;;;;68.33;34.83;;;-2.90;1.00;;;;;;5040346;28;20632;-70
2023/01/21 06:19:34;;;;;;;68.23;36.60;;;-2.70;1.00;;;;;;5057181;28;20220;-71
2023/01/21 06:22:01;;;;;;;66.10;36.03;;;-2.70;1.00;;;;;;5059533;28;20673;-70
2023/01/21 06:24:28;;;;;;;66.17;35.13;;;-2.60;1.00;;;;;;5057409;28;20659;-70
2023/01/21 06:26:55;;;;;;;60.17;34.27;;;-2.60;1.00;;;;;;5060795;28;20196;-69
2023/01/21 06:29:22;;;;;;;65.30;36.57;;;-2.50;99.90;;;;;;5040609;28;20691;-70
2023/01/21 06:31:49;;;;;;;65.90;35.60;;;-2.50;99.90;;;;;;5056366;28;20318;-70
2023/01/21 06:34:17;;;;;;;65.00;35.00;;;-2.50;99.90;;;;;;5057282;28;20539;-70
2023/01/21 06:36:46;;;;;;;58.57;34.37;;;-2.40;99.90;;;;;;5040729;28;20644;-70
2023/01/21 06:39:15;;;;;;;58.10;34.23;;;-2.40;99.90;;;;;;5025883;28;20207;-70
2023/01/21 06:41:42;;;;;;;61.27;35.33;;;-2.40;99.90;;;;;;5060972;28;20260;-67
2023/01/21 06:44:09;;;;;;;64.40;34.90;;;-2.30;99.90;;;;;;5059677;28;20215;-67
2023/01/21 06:46:36;;;;;;;59.33;34.73;;;-2.30;99.90;;;;;;5054813;28;20199;-67
2023/01/21 06:49:09;;;;;;;58.10;32.87;;;-2.30;99.90;;;;;;5039527;28;20743;-68
2023/01/21 06:51:37;;;;;;;56.90;32.33;;;-2.20;99.90;;;;;;5039512;28;20192;-69
2023/01/21 06:54:04;;;;;;;58.20;31.77;;;-2.20;99.90;;;;;;5043590;28;20202;-68
2023/01/21 06:56:31;;;;;;;53.47;32.27;;;-2.20;99.90;;;;;;5045817;28;20277;-68
2023/01/21 06:58:59;;;;;;;58.10;31.70;;;-2.10;53.20;;;;;;5041760;28;20192;-68
2023/01/21 07:01:27;;;;;;;62.93;33.60;;;-2.20;1.00;;;;;;5041414;28;20187;-67
2023/01/21 07:04:00;;;;;;;64.03;36.57;;;-2.10;1.00;;;;;;5043625;28;20230;-68
2023/01/21 07:06:27;;;;;;;67.67;36.43;;;-2.10;1.00;;;;;;5044127;28;20206;-71
2023/01/21 07:08:54;;;;;;;76.60;40.60;;;-2.10;1.00;;;;;;5063079;28;20573;-70
2023/01/21 07:11:22;;;;;;;74.40;41.57;;;-2.10;1.00;;;;;;5063454;28;20222;-73
2023/01/21 07:13:49;;;;;;;60.20;36.77;;;-2.10;1.00;;;;;;5041418;28;20195;-71
2023/01/21 07:16:16;;;;;;;64.20;37.67;;;-2.00;1.00;;;;;;5047664;28;20202;-68
2023/01/21 07:18:44;;;;;;;61.63;38.00;;;-1.90;1.00;;;;;;5060311;28;20286;-70
2023/01/21 07:21:13;;;;;;;63.23;37.30;;;-1.90;1.00;;;;;;5042954;28;20627;-70
2023/01/21 07:23:40;;;;;;;60.67;36.33;;;-1.80;1.00;;;;;;5059315;28;20827;-70
2023/01/21 07:26:07;;;;;;;60.23;32.60;;;-1.90;1.00;;;;;;5059848;28;20191;-70
2023/01/21 07:28:34;;;;;;;56.30;31.33;;;-1.80;1.00;;;;;;5043479;28;20245;-68
2023/01/21 07:31:02;;;;;;;61.97;34.03;;;-1.60;1.00;;;;;;5042759;28;20628;-67
2023/01/21 07:33:32;;;;;;;69.83;37.97;;;-1.60;1.00;;;;;;5041569;28;20215;-68
2023/01/21 07:35:59;;;;;;;57.23;31.77;;;-1.50;1.00;;;;;;5058207;28;20261;-68
2023/01/21 07:38:26;;;;;;;53.57;30.90;;;-1.50;1.00;;;;;;5040797;28;20256;-68
2023/01/21 07:40:53;;;;;;;56.77;31.67;;;-1.40;1.00;;;;;;5043819;28;20201;-68
2023/01/21 07:43:20;;;;;;;51.17;29.77;;;-1.40;1.00;;;;;;5034929;28;20203;-70
2023/01/21 07:45:48;;;;;;;51.20;29.73;;;-1.40;1.00;;;;;;5040496;28;20188;-68
2023/01/21 07:48:15;;;;;;;57.70;30.57;;;-1.30;1.00;;;;;;5060286;28;20602;-67
2023/01/21 07:50:42;;;;;;;53.13;28.40;;;-1.30;1.00;;;;;;5025012;28;20260;-67
2023/01/21 07:53:11;;;;;;;48.70;26.97;;;-1.20;1.00;;;;;;5038332;28;20602;-67
2023/01/21 07:55:39;;;;;;;52.00;28.57;;;-1.20;1.00;;;;;;5057915;28;20670;-67
2023/01/21 07:58:06;;;;;;;48.90;26.40;;;-1.20;99.90;;;;;;5059410;28;20204;-67
2023/01/21 08:00:33;;;;;;;54.87;28.73;;;-1.10;99.90;;;;;;5062179;28;20721;-67
2023/01/21 08:03:00;;;;;;;48.70;27.53;;;-1.10;99.90;;;;;;5037559;28;20673;-68
2023/01/21 08:05:26;;;;;;;48.20;27.77;;;-1.00;99.90;;;;;;5058002;28;20191;-66
2023/01/21 08:07:57;;;;;;;45.27;27.47;;;-0.80;1.00;;;;;;5058616;28;20694;-65
2023/01/21 08:10:24;;;;;;;46.17;27.00;;;-0.80;1.00;;;;;;5043823;28;20191;-66
2023/01/21 08:12:51;;;;;;;49.17;27.83;;;-0.70;1.00;;;;;;5042370;28;20199;-67
2023/01/21 08:15:18;;;;;;;47.27;27.57;;;-0.70;1.00;;;;;;5049795;28;20191;-68
2023/01/21 08:17:46;;;;;;;46.20;27.40;;;-0.70;1.00;;;;;;5040829;28;20693;-67
2023/01/21 08:20:14;;;;;;;41.53;25.93;;;-0.70;1.00;;;;;;5058935;28;20693;-69
2023/01/21 08:22:41;;;;;;;47.20;25.57;;;-0.70;1.00;;;;;;5058309;28;20297;-68
2023/01/21 08:25:08;;;;;;;43.03;25.60;;;-0.70;1.00;;;;;;5044393;28;20210;-69
2023/01/21 08:27:35;;;;;;;40.00;24.97;;;-0.70;1.00;;;;;;5046127;28;20187;-66
2023/01/21 08:30:02;;;;;;;39.83;24.30;;;-0.60;1.00;;;;;;5061324;28;21115;-67
2023/01/21 08:32:30;;;;;;;38.43;23.90;;;-0.60;1.00;;;;;;5026813;28;20207;-67
2023/01/21 08:34:57;;;;;;;43.67;26.47;;;-0.60;1.00;;;;;;5061790;28;20203;-67
2023/01/21 08:37:24;;;;;;;44.13;25.37;;;-0.60;1.00;;;;;;5063697;28;20227;-68
2023/01/21 08:39:51;;;;;;;49.20;25.27;;;-0.50;1.00;;;;;;5045613;28;20207;-68
2023/01/21 08:42:18;;;;;;;42.67;25.83;;;-0.50;1.00;;;;;;5046931;28;20229;-69
2023/01/21 08:44:45;;;;;;;45.30;26.40;;;-0.50;1.00;;;;;;5037925;28;20294;-67
2023/01/21 08:47:12;;;;;;;44.87;27.60;;;-0.50;1.00;;;;;;5042555;28;20435;-68
2023/01/21 08:49:39;;;;;;;43.93;28.57;;;-0.40;1.00;;;;;;5042762;28;20218;-68
2023/01/21 08:52:07;;;;;;;45.17;27.00;;;-0.40;1.00;;;;;;5060466;28;20211;-66
2023/01/21 08:54:33;;;;;;;44.53;25.97;;;-0.30;1.00;;;;;;5063731;28;20224;-69
2023/01/21 08:57:00;;;;;;;45.97;26.57;;;-0.30;1.00;;;;;;5046071;28;20195;-67
2023/01/21 08:59:28;;;;;;;44.90;27.07;;;-0.20;1.00;;;;;;5045321;28;20230;-67
2023/01/21 09:01:56;;;;;;;42.87;26.20;;;-0.20;1.00;;;;;;5044483;28;20210;-67
2023/01/21 09:04:23;;;;;;;42.03;25.90;;;-0.20;1.00;;;;;;5045356;28;20568;-69
2023/01/21 09:06:50;;;;;;;49.10;28.30;;;-0.10;1.00;;;;;;5044019;28;20700;-66
2023/01/21 09:09:17;;;;;;;46.87;28.27;;;-0.10;1.00;;;;;;5031474;28;20199;-66
2023/01/21 09:11:44;;;;;;;48.53;27.53;;;-0.10;1.00;;;;;;5037244;28;20202;-66
2023/01/21 09:14:11;;;;;;;56.87;31.83;;;-0.10;1.00;;;;;;5063420;28;20659;-67
2023/01/21 09:16:38;;;;;;;61.63;34.23;;;-0.10;1.00;;;;;;5060947;28;20223;-67
2023/01/21 09:19:06;;;;;;;56.27;34.20;;;-0.10;1.00;;;;;;5043541;28;20227;-67
2023/01/21 09:21:33;;;;;;;60.07;33.87;;;0.00;1.00;;;;;;5045347;28;20210;-67
2023/01/21 09:24:01;;;;;;;57.23;32.13;;;-0.10;1.00;;;;;;5061884;28;20610;-66
2023/01/21 09:26:29;;;;;;;54.50;31.93;;;0.00;1.00;;;;;;5046025;28;20536;-68
2023/01/21 09:29:00;;;;;;;58.57;33.17;;;0.10;1.00;;;;;;5026865;28;20237;-67
2023/01/21 09:31:28;;;;;;;62.17;33.23;;;0.10;1.00;;;;;;5058591;28;20572;-69
2023/01/21 09:33:59;;;;;;;70.27;39.47;;;0.20;99.90;;;;;;5058744;28;20200;-69
2023/01/21 09:36:34;;;;;;;58.37;34.70;;;0.30;99.90;;;;;;5063781;28;20685;-69
2023/01/21 09:39:05;;;;;;;57.00;33.07;;;0.30;99.90;;;;;;5026498;28;20214;-70
2023/01/21 09:41:51;;;;;;;59.13;31.70;;;0.50;99.90;;;;;;5063507;28;20233;-70
2023/01/21 09:44:44;;;;;;;54.47;29.43;;;0.60;99.90;;;;;;5063192;28;20694;-69
2023/01/21 09:47:19;;;;;;;53.87;30.63;;;0.80;99.90;;;;;;5059019;28;20195;-68
2023/01/21 09:49:57;;;;;;;55.10;30.47;;;1.00;99.90;;;;;;5043202;28;20617;-69
2023/01/21 09:52:29;;;;;;;48.07;29.30;;;1.00;99.90;;;;;;5046091;28;20198;-67
2023/01/21 09:54:57;;;;;;;56.87;29.57;;;1.10;99.90;;;;;;5028957;28;20948;-67
2023/01/21 09:58:01;;;;;;;51.87;29.97;;;1.10;99.90;;;;;;5062276;28;20219;-68
2023/01/21 10:00:39;;;;;;;49.80;30.53;;;1.10;99.90;;;;;;5056667;28;20195;-68
2023/01/21 10:03:28;;;;;;;53.23;30.53;;;1.10;99.90;;;;;;5041304;28;20246;-67
2023/01/21 10:06:18;;;;;;;61.57;34.07;;;1.00;99.90;;;;;;5027083;28;20195;-68
2023/01/21 10:08:59;;;;;;;54.30;30.53;;;1.00;99.90;;;;;;5043068;28;20195;-68
2023/01/21 10:11:46;;;;;;;68.53;36.73;;;1.00;99.90;;;;;;5024916;28;20188;-68
2023/01/21 10:14:29;;;;;;;59.53;31.10;;;1.10;99.90;;;;;;5023340;28;20261;-69
2023/01/21 10:17:10;;;;;;;51.37;29.83;;;1.10;99.90;;;;;;5040986;28;20204;-69
2023/01/21 10:19:51;;;;;;;66.97;32.53;;;1.00;99.80;;;;;;5062515;28;20204;-68
2023/01/21 10:22:23;;;;;;;85.03;44.90;;;1.00;99.90;;;;;;5063588;28;20313;-70
2023/01/21 10:25:28;;;;;;;93.10;47.47;;;1.10;99.90;;;;;;5050769;28;20203;-71
2023/01/21 10:28:23;;;;;;;70.23;38.97;;;1.10;99.90;;;;;;5039538;28;20244;-69
2023/01/21 10:30:57;;;;;;;57.53;31.93;;;1.20;93.40;;;;;;5051780;28;20254;-69
2023/01/21 10:33:26;;;;;;;51.37;31.63;;;1.10;86.60;;;;;;5045789;28;20211;-68
2023/01/21 10:36:18;;;;;;;55.30;32.60;;;1.10;99.90;;;;;;5042709;28;20245;-68
2023/01/21 10:38:56;;;;;;;58.43;32.77;;;1.20;99.90;;;;;;5040828;28;20207;-70
2023/01/21 10:41:33;;;;;;;56.10;31.20;;;1.20;99.90;;;;;;5026420;28;20693;-69
2023/01/21 10:44:26;;;;;;;55.27;30.07;;;1.30;99.90;;;;;;5060002;28;20707;-69
2023/01/21 10:47:11;;;;;;;51.13;28.87;;;1.20;77.00;;;;;;5040817;28;20192;-69
2023/01/21 10:50:27;;;;;;;53.37;30.60;;;1.20;78.40;;;;;;5052097;28;20309;-69
2023/01/21 10:52:57;;;;;;;51.40;29.73;;;1.10;68.70;;;;;;4945027;28;20399;-69
2023/01/21 10:55:48;;;;;;;53.80;29.50;;;1.10;62.70;;;;;;5037039;28;20202;-70
2023/01/21 10:58:27;;;;;;;51.50;29.07;;;1.10;82.00;;;;;;5057553;28;20732;-69
2023/01/21 11:01:00;;;;;;;60.60;30.80;;;1.20;63.80;;;;;;5039071;28;20255;-69
2023/01/21 11:03:33;;;;;;;54.33;28.07;;;1.20;75.90;;;;;;5019830;28;20228;-69
2023/01/21 11:06:05;;;;;;;55.77;29.80;;;1.10;65.70;;;;;;5019318;28;20257;-69
2023/01/21 11:08:32;;;;;;;56.23;29.50;;;1.10;82.10;;;;;;5025954;28;20248;-68
2023/01/21 11:11:01;;;;;;;54.10;29.93;;;1.10;92.20;;;;;;5001779;28;20735;-68
2023/01/21 11:13:28;;;;;;;59.10;30.57;;;1.10;98.30;;;;;;5040971;28;20192;-69
2023/01/21 11:15:58;;;;;;;57.40;32.07;;;1.10;99.40;;;;;;5059913;28;20210;-68
2023/01/21 11:18:25;;;;;;;54.13;30.57;;;1.20;99.90;;;;;;5055704;28;20866;-68
2023/01/21 11:20:56;;;;;;;55.10;30.27;;;1.10;99.90;;;;;;5025536;28;20264;-68
2023/01/21 11:23:34;;;;;;;54.63;30.60;;;1.10;99.90;;;;;;5034323;28;20216;-69
2023/01/21 11:26:06;;;;;;;60.70;31.37;;;1.10;99.90;;;;;;5056071;28;20639;-70
2023/01/21 11:28:36;;;;;;;59.67;30.87;;;1.20;99.90;;;;;;5038692;28;20201;-69
2023/01/21 11:31:32;;;;;;;59.53;30.37;;;1.20;99.90;;;;;;5038339;28;20231;-68
2023/01/21 11:34:14;;;;;;;60.83;30.10;;;1.20;99.90;;;;;;5047777;28;20223;-68
2023/01/21 11:37:00;;;;;;;60.27;29.77;;;1.20;99.90;;;;;;5057248;28;20202;-70
2023/01/21 11:39:33;;;;;;;60.83;31.93;;;1.30;99.90;;;;;;5055639;28;20248;-69
2023/01/21 11:42:15;;;;;;;65.90;32.53;;;1.30;99.90;;;;;;5055511;28;20260;-69
2023/01/21 11:45:00;;;;;;;58.27;31.47;;;1.30;99.90;;;;;;5036906;28;20232;-69
2023/01/21 11:47:33;;;;;;;60.70;32.77;;;1.40;99.90;;;;;;5041303;28;20190;-69
2023/01/21 11:50:21;;;;;;;63.73;33.67;;;1.40;99.90;;;;;;5036590;28;20718;-69
2023/01/21 11:53:10;;;;;;;64.40;33.37;;;1.30;99.90;;;;;;5023938;28;20213;-71
2023/01/21 11:55:55;;;;;;;49.03;27.10;;;1.30;99.90;;;;;;5039608;28;20203;-70
2023/01/21 11:58:24;;;;;;;55.67;29.50;;;1.30;99.90;;;;;;5051565;28;20544;-69
2023/01/21 12:00:55;;;;;;;54.50;26.93;;;1.30;99.90;;;;;;5040582;28;20221;-69
2023/01/21 12:03:28;;;;;;;52.40;27.57;;;1.40;99.90;;;;;;5057004;28;20231;-68
2023/01/21 12:05:55;;;;;;;51.47;27.73;;;1.40;99.90;;;;;;5027087;28;20303;-69
2023/01/21 12:08:25;;;;;;;58.00;30.07;;;1.50;99.30;;;;;;5043791;28;20206;-68
2023/01/21 12:10:55;;;;;;;51.00;27.33;;;1.50;97.50;;;;;;5025670;28;20196;-68
2023/01/21 12:13:49;;;;;;;57.40;27.83;;;1.50;94.00;;;;;;5062531;28;20195;-69
2023/01/21 12:16:35;;;;;;;49.53;26.03;;;1.50;90.70;;;;;;5012919;28;20702;-68
2023/01/21 12:19:24;;;;;;;52.37;26.33;;;1.50;77.30;;;;;;5044238;28;20284;-68
2023/01/21 12:22:06;;;;;;;45.17;25.83;;;1.50;78.10;;;;;;5062368;28;20234;-70
2023/01/21 12:25:11;;;;;;;45.77;25.70;;;1.50;72.30;;;;;;5011658;28;20302;-68
2023/01/21 12:27:59;;;;;;;45.63;25.87;;;1.50;70.20;;;;;;5045084;28;20195;-69
2023/01/21 12:30:35;;;;;;;47.63;26.63;;;1.50;51.70;;;;;;5044651;28;20227;-68
2023/01/21 12:33:23;;;;;;;47.37;26.97;;;1.50;64.50;;;;;;5029673;28;20234;-68
2023/01/21 12:35:54;;;;;;;49.03;26.70;;;1.50;61.40;;;;;;5044434;28;20618;-69
2023/01/21 12:38:31;;;;;;;50.13;27.80;;;1.40;56.50;;;;;;5063399;28;20404;-69
2023/01/21 12:41:24;;;;;;;48.63;27.13;;;1.40;69.40;;;;;;5043529;28;20249;-68
2023/01/21 12:43:57;;;;;;;50.20;28.03;;;1.30;59.00;;;;;;5037360;28;20258;-69
2023/01/21 12:46:43;;;;;;;43.50;24.97;;;1.40;70.20;;;;;;5060001;28;20191;-68
2023/01/21 12:49:41;;;;;;;44.20;25.23;;;1.30;40.10;;;;;;5042898;28;20275;-69
2023/01/21 12:52:17;;;;;;;43.53;24.30;;;1.30;45.50;;;;;;5060863;28;20194;-68
2023/01/21 12:54:52;;;;;;;41.57;21.87;;;1.30;21.80;;;;;;5045507;28;20825;-68
2023/01/21 12:57:36;;;;;;;47.03;23.90;;;1.30;1.00;;;;;;5042662;28;20755;-67
2023/01/21 13:00:03;;;;;;;38.53;21.33;;;1.30;1.00;;;;;;5058299;28;20186;-69
2023/01/21 13:02:37;;;;;;;38.30;21.43;;;1.20;1.00;;;;;;5024188;28;20226;-68
2023/01/21 13:05:42;;;;;;;38.47;20.70;;;1.30;1.00;;;;;;5060470;28;20222;-69